Leona, Texas
Current Conditions -  °F | °C
As of 10:15 AM on Monday 22 Dec 2014 (Local Time) from KDKR Reporting Station
Broken Clouds Broken Clouds  
Wind Chill: 66°   Ceiling: 1700
Heat Index: 66°   Visibility: NA
Dew Point: 61°   Wind: 21mph
Humidity: 83%   Direction: 200°SSW
Pressure: 29.73"   Gusts: 28mph
Location:  31.15°N, 95.97°W
Report Text: KDKR 221615Z AUTO 20018G24KT BKN017 BKN023 19/16 A2973 RMK AO2
Loading
Personal Weather Stations






























Interactive Weather Map New forecast layout! Learn more

10-Day Weather Forecast

Advertisements
Track Severe Weather on mobile